sensor_id;sensor_type;location;lat;lon;timestamp;P1;durP1;ratioP1;P2;durP2;ratioP2
62574;SDS011;53112;45.602;11.904;2023-02-03T00:00:33;129.43;;;55.83;;
62574;SDS011;53112;45.602;11.904;2023-02-03T00:02:59;153.88;;;62.53;;
62574;SDS011;53112;45.602;11.904;2023-02-03T00:05:25;141.68;;;60.72;;
62574;SDS011;53112;45.602;11.904;2023-02-03T00:07:51;147.05;;;62.85;;
62574;SDS011;53112;45.602;11.904;2023-02-03T00:10:17;135.50;;;58.90;;
62574;SDS011;53112;45.602;11.904;2023-02-03T00:12:49;138.60;;;58.97;;
62574;SDS011;53112;45.602;11.904;2023-02-03T00:15:17;133.50;;;59.55;;
62574;SDS011;53112;45.602;11.904;2023-02-03T00:17:43;138.45;;;55.75;;
62574;SDS011;53112;45.602;11.904;2023-02-03T00:20:09;145.35;;;61.47;;
62574;SDS011;53112;45.602;11.904;2023-02-03T00:22:35;156.90;;;64.63;;
62574;SDS011;53112;45.602;11.904;2023-02-03T00:25:02;131.38;;;55.58;;
62574;SDS011;53112;45.602;11.904;2023-02-03T00:27:28;146.60;;;60.88;;
62574;SDS011;53112;45.602;11.904;2023-02-03T00:29:54;137.38;;;58.08;;
62574;SDS011;53112;45.602;11.904;2023-02-03T00:32:20;127.75;;;54.47;;
62574;SDS011;53112;45.602;11.904;2023-02-03T00:34:46;137.10;;;57.58;;
62574;SDS011;53112;45.602;11.904;2023-02-03T00:37:12;143.18;;;59.72;;
62574;SDS011;53112;45.602;11.904;2023-02-03T00:39:38;119.25;;;50.88;;
62574;SDS011;53112;45.602;11.904;2023-02-03T00:42:04;150.98;;;59.13;;
62574;SDS011;53112;45.602;11.904;2023-02-03T00:44:30;141.77;;;59.13;;
62574;SDS011;53112;45.602;11.904;2023-02-03T00:46:57;135.57;;;59.05;;
62574;SDS011;53112;45.602;11.904;2023-02-03T00:49:23;132.32;;;55.95;;
62574;SDS011;53112;45.602;11.904;2023-02-03T00:51:50;133.55;;;56.30;;
62574;SDS011;53112;45.602;11.904;2023-02-03T00:54:16;124.93;;;53.80;;
62574;SDS011;53112;45.602;11.904;2023-02-03T00:56:42;128.13;;;56.15;;
62574;SDS011;53112;45.602;11.904;2023-02-03T00:59:09;133.32;;;53.70;;
62574;SDS011;53112;45.602;11.904;2023-02-03T01:01:35;130.57;;;55.55;;
62574;SDS011;53112;45.602;11.904;2023-02-03T01:04:01;123.57;;;52.15;;
62574;SDS011;53112;45.602;11.904;2023-02-03T01:06:28;109.00;;;48.28;;
62574;SDS011;53112;45.602;11.904;2023-02-03T01:08:54;125.03;;;52.00;;
62574;SDS011;53112;45.602;11.904;2023-02-03T01:11:21;124.13;;;53.53;;
62574;SDS011;53112;45.602;11.904;2023-02-03T01:13:50;133.30;;;58.20;;
62574;SDS011;53112;45.602;11.904;2023-02-03T01:16:18;128.88;;;53.47;;
62574;SDS011;53112;45.602;11.904;2023-02-03T01:18:45;127.03;;;55.63;;
62574;SDS011;53112;45.602;11.904;2023-02-03T01:21:12;131.13;;;52.22;;
62574;SDS011;53112;45.602;11.904;2023-02-03T01:23:40;132.98;;;51.00;;
62574;SDS011;53112;45.602;11.904;2023-02-03T01:26:07;117.03;;;50.35;;
62574;SDS011;53112;45.602;11.904;2023-02-03T01:28:35;126.43;;;50.50;;
62574;SDS011;53112;45.602;11.904;2023-02-03T01:34:01;132.48;;;52.05;;
62574;SDS011;53112;45.602;11.904;2023-02-03T01:36:28;125.63;;;51.40;;
62574;SDS011;53112;45.602;11.904;2023-02-03T01:38:56;134.40;;;55.47;;
62574;SDS011;53112;45.602;11.904;2023-02-03T01:41:23;120.00;;;49.58;;
62574;SDS011;53112;45.602;11.904;2023-02-03T01:43:55;109.15;;;45.60;;
62574;SDS011;53112;45.602;11.904;2023-02-03T01:49:36;145.43;;;54.50;;
62574;SDS011;53112;45.602;11.904;2023-02-03T01:51:58;137.98;;;55.20;;
62574;SDS011;53112;45.602;11.904;2023-02-03T01:54:28;121.45;;;53.15;;
62574;SDS011;53112;45.602;11.904;2023-02-03T01:56:58;133.15;;;55.72;;
62574;SDS011;53112;45.602;11.904;2023-02-03T01:59:28;130.48;;;52.80;;
62574;SDS011;53112;45.602;11.904;2023-02-03T02:01:55;128.18;;;52.17;;
62574;SDS011;53112;45.602;11.904;2023-02-03T02:04:23;127.53;;;54.30;;
62574;SDS011;53112;45.602;11.904;2023-02-03T02:06:56;118.43;;;48.60;;
62574;SDS011;53112;45.602;11.904;2023-02-03T02:09:24;112.97;;;49.17;;
62574;SDS011;53112;45.602;11.904;2023-02-03T02:11:50;117.20;;;49.53;;
62574;SDS011;53112;45.602;11.904;2023-02-03T02:14:16;114.75;;;48.53;;
62574;SDS011;53112;45.602;11.904;2023-02-03T02:22:29;147.93;;;57.75;;
62574;SDS011;53112;45.602;11.904;2023-02-03T02:33:33;151.40;;;59.35;;
62574;SDS011;53112;45.602;11.904;2023-02-03T02:36:11;164.73;;;62.05;;
62574;SDS011;53112;45.602;11.904;2023-02-03T02:38:58;162.70;;;62.75;;
62574;SDS011;53112;45.602;11.904;2023-02-03T02:41:34;154.35;;;60.20;;
62574;SDS011;53112;45.602;11.904;2023-02-03T02:46:57;148.27;;;56.72;;
62574;SDS011;53112;45.602;11.904;2023-02-03T02:52:24;141.55;;;54.72;;
62574;SDS011;53112;45.602;11.904;2023-02-03T02:54:55;150.68;;;58.15;;
62574;SDS011;53112;45.602;11.904;2023-02-03T02:57:27;150.43;;;57.00;;
62574;SDS011;53112;45.602;11.904;2023-02-03T02:59:55;145.73;;;58.03;;
62574;SDS011;53112;45.602;11.904;2023-02-03T03:02:21;150.35;;;59.05;;
62574;SDS011;53112;45.602;11.904;2023-02-03T03:04:55;145.63;;;58.67;;
62574;SDS011;53112;45.602;11.904;2023-02-03T03:07:23;139.52;;;54.33;;
62574;SDS011;53112;45.602;11.904;2023-02-03T03:09:53;147.07;;;56.15;;
62574;SDS011;53112;45.602;11.904;2023-02-03T03:12:28;148.15;;;56.33;;
62574;SDS011;53112;45.602;11.904;2023-02-03T03:15:03;155.93;;;59.83;;
62574;SDS011;53112;45.602;11.904;2023-02-03T03:17:33;165.40;;;64.35;;
62574;SDS011;53112;45.602;11.904;2023-02-03T03:20:09;151.73;;;61.15;;
62574;SDS011;53112;45.602;11.904;2023-02-03T03:22:41;152.82;;;58.50;;
62574;SDS011;53112;45.602;11.904;2023-02-03T03:25:13;153.63;;;58.35;;
62574;SDS011;53112;45.602;11.904;2023-02-03T03:27:46;155.38;;;61.05;;
62574;SDS011;53112;45.602;11.904;2023-02-03T03:30:17;164.07;;;61.88;;
62574;SDS011;53112;45.602;11.904;2023-02-03T03:35:14;162.38;;;60.92;;
62574;SDS011;53112;45.602;11.904;2023-02-03T03:37:42;159.68;;;63.75;;
62574;SDS011;53112;45.602;11.904;2023-02-03T03:40:23;156.95;;;61.67;;
62574;SDS011;53112;45.602;11.904;2023-02-03T03:42:52;165.13;;;63.80;;
62574;SDS011;53112;45.602;11.904;2023-02-03T03:47:56;159.15;;;63.97;;
62574;SDS011;53112;45.602;11.904;2023-02-03T03:50:35;159.40;;;63.00;;
62574;SDS011;53112;45.602;11.904;2023-02-03T03:53:06;157.20;;;60.83;;
62574;SDS011;53112;45.602;11.904;2023-02-03T03:55:34;163.23;;;62.15;;
62574;SDS011;53112;45.602;11.904;2023-02-03T03:58:03;153.20;;;58.13;;
62574;SDS011;53112;45.602;11.904;2023-02-03T04:00:33;158.93;;;61.78;;
62574;SDS011;53112;45.602;11.904;2023-02-03T04:03:06;139.18;;;55.15;;
62574;SDS011;53112;45.602;11.904;2023-02-03T04:05:40;147.05;;;56.92;;
62574;SDS011;53112;45.602;11.904;2023-02-03T04:08:07;138.70;;;56.00;;
62574;SDS011;53112;45.602;11.904;2023-02-03T04:10:34;158.30;;;62.80;;
62574;SDS011;53112;45.602;11.904;2023-02-03T04:13:02;155.55;;;61.22;;
62574;SDS011;53112;45.602;11.904;2023-02-03T04:15:29;161.60;;;64.50;;
62574;SDS011;53112;45.602;11.904;2023-02-03T04:17:56;160.38;;;63.45;;
62574;SDS011;53112;45.602;11.904;2023-02-03T04:20:23;150.50;;;60.25;;
62574;SDS011;53112;45.602;11.904;2023-02-03T04:22:49;153.27;;;64.05;;
62574;SDS011;53112;45.602;11.904;2023-02-03T04:25:15;151.73;;;60.65;;
62574;SDS011;53112;45.602;11.904;2023-02-03T04:27:41;155.50;;;63.60;;
62574;SDS011;53112;45.602;11.904;2023-02-03T04:30:07;156.05;;;63.45;;
62574;SDS011;53112;45.602;11.904;2023-02-03T04:32:34;153.40;;;63.33;;
62574;SDS011;53112;45.602;11.904;2023-02-03T04:35:01;161.63;;;65.00;;
62574;SDS011;53112;45.602;11.904;2023-02-03T04:37:29;166.10;;;63.17;;
62574;SDS011;53112;45.602;11.904;2023-02-03T04:39:55;162.75;;;64.20;;
62574;SDS011;53112;45.602;11.904;2023-02-03T04:42:22;165.48;;;63.50;;
62574;SDS011;53112;45.602;11.904;2023-02-03T04:44:48;150.85;;;59.28;;
62574;SDS011;53112;45.602;11.904;2023-02-03T04:47:14;144.20;;;56.97;;
62574;SDS011;53112;45.602;11.904;2023-02-03T04:49:41;145.50;;;58.15;;
62574;SDS011;53112;45.602;11.904;2023-02-03T04:52:07;130.48;;;50.97;;
62574;SDS011;53112;45.602;11.904;2023-02-03T04:54:33;140.73;;;59.03;;
62574;SDS011;53112;45.602;11.904;2023-02-03T04:56:59;146.50;;;59.67;;
62574;SDS011;53112;45.602;11.904;2023-02-03T04:59:26;155.88;;;62.40;;
62574;SDS011;53112;45.602;11.904;2023-02-03T05:01:51;134.80;;;53.47;;
62574;SDS011;53112;45.602;11.904;2023-02-03T05:04:17;139.45;;;58.30;;
62574;SDS011;53112;45.602;11.904;2023-02-03T05:06:43;150.70;;;58.58;;
62574;SDS011;53112;45.602;11.904;2023-02-03T05:09:09;151.68;;;57.97;;
62574;SDS011;53112;45.602;11.904;2023-02-03T05:11:35;140.32;;;55.35;;
62574;SDS011;53112;45.602;11.904;2023-02-03T05:14:01;134.27;;;53.58;;
62574;SDS011;53112;45.602;11.904;2023-02-03T05:16:27;141.50;;;54.60;;
62574;SDS011;53112;45.602;11.904;2023-02-03T05:18:53;136.38;;;53.33;;
62574;SDS011;53112;45.602;11.904;2023-02-03T05:21:19;135.95;;;51.97;;
62574;SDS011;53112;45.602;11.904;2023-02-03T05:23:45;127.60;;;52.47;;
62574;SDS011;53112;45.602;11.904;2023-02-03T05:26:11;109.72;;;46.25;;
62574;SDS011;53112;45.602;11.904;2023-02-03T05:28:37;135.50;;;52.42;;
62574;SDS011;53112;45.602;11.904;2023-02-03T05:31:03;130.55;;;52.50;;
62574;SDS011;53112;45.602;11.904;2023-02-03T05:33:29;126.43;;;50.40;;
62574;SDS011;53112;45.602;11.904;2023-02-03T05:35:55;112.32;;;45.35;;
62574;SDS011;53112;45.602;11.904;2023-02-03T05:38:21;147.85;;;56.70;;
62574;SDS011;53112;45.602;11.904;2023-02-03T05:40:47;139.57;;;53.00;;
62574;SDS011;53112;45.602;11.904;2023-02-03T05:43:33;129.30;;;51.80;;
62574;SDS011;53112;45.602;11.904;2023-02-03T05:45:59;133.07;;;51.42;;
62574;SDS011;53112;45.602;11.904;2023-02-03T05:48:26;134.85;;;55.53;;
62574;SDS011;53112;45.602;11.904;2023-02-03T05:50:52;149.23;;;59.00;;
62574;SDS011;53112;45.602;11.904;2023-02-03T05:53:18;144.05;;;55.67;;
62574;SDS011;53112;45.602;11.904;2023-02-03T05:55:44;136.10;;;53.65;;
62574;SDS011;53112;45.602;11.904;2023-02-03T05:58:09;135.38;;;52.88;;
62574;SDS011;53112;45.602;11.904;2023-02-03T06:00:35;146.77;;;56.75;;
62574;SDS011;53112;45.602;11.904;2023-02-03T06:03:02;141.48;;;57.22;;
62574;SDS011;53112;45.602;11.904;2023-02-03T06:05:29;138.63;;;56.05;;
62574;SDS011;53112;45.602;11.904;2023-02-03T06:07:57;140.65;;;52.95;;
62574;SDS011;53112;45.602;11.904;2023-02-03T06:10:23;128.07;;;53.53;;
62574;SDS011;53112;45.602;11.904;2023-02-03T06:12:50;147.48;;;57.28;;
62574;SDS011;53112;45.602;11.904;2023-02-03T06:15:16;141.57;;;57.70;;
62574;SDS011;53112;45.602;11.904;2023-02-03T06:17:43;154.25;;;60.25;;
62574;SDS011;53112;45.602;11.904;2023-02-03T06:20:15;121.40;;;48.90;;
62574;SDS011;53112;45.602;11.904;2023-02-03T06:22:42;149.25;;;55.53;;
62574;SDS011;53112;45.602;11.904;2023-02-03T06:25:09;132.68;;;53.13;;
62574;SDS011;53112;45.602;11.904;2023-02-03T06:27:35;125.05;;;50.55;;
62574;SDS011;53112;45.602;11.904;2023-02-03T06:30:02;141.68;;;56.13;;
62574;SDS011;53112;45.602;11.904;2023-02-03T06:32:28;141.15;;;54.00;;
62574;SDS011;53112;45.602;11.904;2023-02-03T06:34:54;157.45;;;64.47;;
62574;SDS011;53112;45.602;11.904;2023-02-03T06:37:20;151.77;;;60.35;;
62574;SDS011;53112;45.602;11.904;2023-02-03T06:39:46;146.43;;;58.45;;
62574;SDS011;53112;45.602;11.904;2023-02-03T06:42:12;132.27;;;53.08;;
62574;SDS011;53112;45.602;11.904;2023-02-03T06:44:38;138.93;;;52.40;;
62574;SDS011;53112;45.602;11.904;2023-02-03T06:47:04;147.80;;;55.35;;
62574;SDS011;53112;45.602;11.904;2023-02-03T06:49:30;145.05;;;55.45;;
62574;SDS011;53112;45.602;11.904;2023-02-03T06:51:56;144.73;;;56.05;;
62574;SDS011;53112;45.602;11.904;2023-02-03T06:54:22;149.32;;;56.65;;
62574;SDS011;53112;45.602;11.904;2023-02-03T06:56:48;143.35;;;56.33;;
62574;SDS011;53112;45.602;11.904;2023-02-03T06:59:13;136.43;;;51.50;;
62574;SDS011;53112;45.602;11.904;2023-02-03T07:01:39;126.88;;;50.85;;
62574;SDS011;53112;45.602;11.904;2023-02-03T07:04:05;121.07;;;48.65;;
62574;SDS011;53112;45.602;11.904;2023-02-03T07:06:31;113.85;;;46.97;;
62574;SDS011;53112;45.602;11.904;2023-02-03T07:08:58;137.20;;;54.20;;
62574;SDS011;53112;45.602;11.904;2023-02-03T07:11:26;135.85;;;54.47;;
62574;SDS011;53112;45.602;11.904;2023-02-03T07:13:52;148.27;;;58.60;;
62574;SDS011;53112;45.602;11.904;2023-02-03T07:16:18;136.10;;;54.08;;
62574;SDS011;53112;45.602;11.904;2023-02-03T07:18:45;140.50;;;56.05;;
62574;SDS011;53112;45.602;11.904;2023-02-03T07:21:11;129.75;;;52.20;;
62574;SDS011;53112;45.602;11.904;2023-02-03T07:23:38;135.40;;;55.67;;
62574;SDS011;53112;45.602;11.904;2023-02-03T07:26:05;150.07;;;56.60;;
62574;SDS011;53112;45.602;11.904;2023-02-03T07:28:32;144.43;;;58.10;;
62574;SDS011;53112;45.602;11.904;2023-02-03T07:30:59;132.75;;;56.13;;
62574;SDS011;53112;45.602;11.904;2023-02-03T07:33:26;144.70;;;56.38;;
62574;SDS011;53112;45.602;11.904;2023-02-03T07:35:56;134.60;;;55.55;;
62574;SDS011;53112;45.602;11.904;2023-02-03T07:38:24;135.70;;;53.70;;
62574;SDS011;53112;45.602;11.904;2023-02-03T07:40:51;143.57;;;55.05;;
62574;SDS011;53112;45.602;11.904;2023-02-03T07:43:18;144.30;;;56.15;;
62574;SDS011;53112;45.602;11.904;2023-02-03T07:45:44;136.55;;;54.42;;
62574;SDS011;53112;45.602;11.904;2023-02-03T07:48:10;142.05;;;56.03;;
62574;SDS011;53112;45.602;11.904;2023-02-03T07:50:37;136.05;;;53.15;;
62574;SDS011;53112;45.602;11.904;2023-02-03T07:53:03;130.98;;;52.63;;
62574;SDS011;53112;45.602;11.904;2023-02-03T07:55:30;144.35;;;57.03;;
62574;SDS011;53112;45.602;11.904;2023-02-03T07:57:57;147.25;;;58.13;;
62574;SDS011;53112;45.602;11.904;2023-02-03T08:00:23;140.13;;;56.13;;
62574;SDS011;53112;45.602;11.904;2023-02-03T08:02:50;152.25;;;57.90;;
62574;SDS011;53112;45.602;11.904;2023-02-03T08:05:16;150.32;;;61.22;;
62574;SDS011;53112;45.602;11.904;2023-02-03T08:07:43;157.95;;;62.75;;
62574;SDS011;53112;45.602;11.904;2023-02-03T08:10:10;145.13;;;57.50;;
62574;SDS011;53112;45.602;11.904;2023-02-03T08:12:38;155.35;;;60.47;;
62574;SDS011;53112;45.602;11.904;2023-02-03T08:15:04;154.10;;;58.17;;
62574;SDS011;53112;45.602;11.904;2023-02-03T08:17:31;152.20;;;60.95;;
62574;SDS011;53112;45.602;11.904;2023-02-03T08:20:00;155.82;;;61.65;;
62574;SDS011;53112;45.602;11.904;2023-02-03T08:22:26;145.88;;;61.35;;
62574;SDS011;53112;45.602;11.904;2023-02-03T08:24:52;157.75;;;62.95;;
62574;SDS011;53112;45.602;11.904;2023-02-03T08:27:19;161.30;;;65.75;;
62574;SDS011;53112;45.602;11.904;2023-02-03T08:29:46;165.15;;;69.18;;
62574;SDS011;53112;45.602;11.904;2023-02-03T08:32:14;169.50;;;65.97;;
62574;SDS011;53112;45.602;11.904;2023-02-03T08:34:42;170.25;;;68.07;;
62574;SDS011;53112;45.602;11.904;2023-02-03T08:37:09;170.30;;;68.78;;
62574;SDS011;53112;45.602;11.904;2023-02-03T08:39:36;165.18;;;66.85;;
62574;SDS011;53112;45.602;11.904;2023-02-03T08:42:03;153.07;;;61.30;;
62574;SDS011;53112;45.602;11.904;2023-02-03T08:44:30;152.73;;;63.20;;
62574;SDS011;53112;45.602;11.904;2023-02-03T08:46:57;162.32;;;64.20;;
62574;SDS011;53112;45.602;11.904;2023-02-03T08:49:24;167.02;;;67.65;;
62574;SDS011;53112;45.602;11.904;2023-02-03T08:51:52;172.93;;;71.55;;
62574;SDS011;53112;45.602;11.904;2023-02-03T08:54:18;162.38;;;70.10;;
62574;SDS011;53112;45.602;11.904;2023-02-03T08:56:44;169.98;;;66.50;;
62574;SDS011;53112;45.602;11.904;2023-02-03T08:59:11;160.35;;;64.85;;
62574;SDS011;53112;45.602;11.904;2023-02-03T09:01:38;156.68;;;63.25;;
62574;SDS011;53112;45.602;11.904;2023-02-03T09:06:36;156.48;;;63.13;;
62574;SDS011;53112;45.602;11.904;2023-02-03T09:09:03;159.32;;;64.57;;
62574;SDS011;53112;45.602;11.904;2023-02-03T09:11:29;144.00;;;59.70;;
62574;SDS011;53112;45.602;11.904;2023-02-03T09:13:55;144.90;;;59.20;;
62574;SDS011;53112;45.602;11.904;2023-02-03T09:16:22;149.75;;;60.58;;
62574;SDS011;53112;45.602;11.904;2023-02-03T09:18:49;151.40;;;61.65;;
62574;SDS011;53112;45.602;11.904;2023-02-03T09:21:16;145.15;;;59.95;;
62574;SDS011;53112;45.602;11.904;2023-02-03T09:23:43;144.23;;;61.45;;
62574;SDS011;53112;45.602;11.904;2023-02-03T09:26:10;139.88;;;58.00;;
62574;SDS011;53112;45.602;11.904;2023-02-03T09:28:38;142.80;;;56.85;;
62574;SDS011;53112;45.602;11.904;2023-02-03T09:31:06;140.90;;;59.40;;
62574;SDS011;53112;45.602;11.904;2023-02-03T09:33:34;128.95;;;55.70;;
62574;SDS011;53112;45.602;11.904;2023-02-03T09:36:01;133.93;;;54.42;;
62574;SDS011;53112;45.602;11.904;2023-02-03T09:38:28;126.63;;;54.28;;
62574;SDS011;53112;45.602;11.904;2023-02-03T09:41:02;127.82;;;54.75;;
62574;SDS011;53112;45.602;11.904;2023-02-03T09:46:16;106.97;;;48.67;;
62574;SDS011;53112;45.602;11.904;2023-02-03T09:48:47;116.35;;;49.85;;
62574;SDS011;53112;45.602;11.904;2023-02-03T09:51:18;114.45;;;53.05;;
62574;SDS011;53112;45.602;11.904;2023-02-03T09:53:53;110.93;;;49.78;;
62574;SDS011;53112;45.602;11.904;2023-02-03T09:56:47;119.93;;;50.65;;
62574;SDS011;53112;45.602;11.904;2023-02-03T09:59:17;115.47;;;50.40;;
62574;SDS011;53112;45.602;11.904;2023-02-03T10:10:25;111.78;;;50.80;;
62574;SDS011;53112;45.602;11.904;2023-02-03T10:19:18;118.30;;;52.10;;
62574;SDS011;53112;45.602;11.904;2023-02-03T10:21:51;113.80;;;50.35;;
62574;SDS011;53112;45.602;11.904;2023-02-03T10:25:06;109.63;;;50.65;;
62574;SDS011;53112;45.602;11.904;2023-02-03T10:27:13;106.20;;;48.08;;
62574;SDS011;53112;45.602;11.904;2023-02-03T10:29:42;105.63;;;47.08;;
62574;SDS011;53112;45.602;11.904;2023-02-03T10:32:09;103.40;;;48.38;;
62574;SDS011;53112;45.602;11.904;2023-02-03T10:34:36;114.10;;;51.80;;
62574;SDS011;53112;45.602;11.904;2023-02-03T10:40:13;105.93;;;48.35;;
62574;SDS011;53112;45.602;11.904;2023-02-03T10:42:40;101.13;;;48.65;;
62574;SDS011;53112;45.602;11.904;2023-02-03T10:45:31;88.82;;;41.78;;
62574;SDS011;53112;45.602;11.904;2023-02-03T10:48:01;96.78;;;45.78;;
62574;SDS011;53112;45.602;11.904;2023-02-03T10:50:28;98.60;;;48.05;;
62574;SDS011;53112;45.602;11.904;2023-02-03T10:56:17;86.78;;;43.17;;
62574;SDS011;53112;45.602;11.904;2023-02-03T10:58:47;87.40;;;43.17;;
62574;SDS011;53112;45.602;11.904;2023-02-03T11:01:17;82.13;;;40.72;;
62574;SDS011;53112;45.602;11.904;2023-02-03T11:03:59;89.13;;;41.88;;
62574;SDS011;53112;45.602;11.904;2023-02-03T11:06:28;83.28;;;40.42;;
62574;SDS011;53112;45.602;11.904;2023-02-03T11:08:56;82.72;;;41.15;;
62574;SDS011;53112;45.602;11.904;2023-02-03T11:11:31;77.82;;;40.33;;
62574;SDS011;53112;45.602;11.904;2023-02-03T11:16:28;73.30;;;37.97;;
62574;SDS011;53112;45.602;11.904;2023-02-03T11:21:40;82.72;;;40.75;;
62574;SDS011;53112;45.602;11.904;2023-02-03T11:24:28;70.25;;;38.00;;
62574;SDS011;53112;45.602;11.904;2023-02-03T11:29:34;76.75;;;37.97;;
62574;SDS011;53112;45.602;11.904;2023-02-03T11:32:14;72.10;;;37.67;;
62574;SDS011;53112;45.602;11.904;2023-02-03T11:35:28;66.85;;;37.15;;
62574;SDS011;53112;45.602;11.904;2023-02-03T11:37:40;77.03;;;40.83;;
62574;SDS011;53112;45.602;11.904;2023-02-03T11:42:40;70.70;;;37.38;;
62574;SDS011;53112;45.602;11.904;2023-02-03T11:47:55;74.75;;;39.95;;
62574;SDS011;53112;45.602;11.904;2023-02-03T11:50:56;85.82;;;41.95;;
62574;SDS011;53112;45.602;11.904;2023-02-03T12:20:51;71.60;;;40.72;;
62574;SDS011;53112;45.602;11.904;2023-02-03T12:26:09;76.03;;;41.08;;
62574;SDS011;53112;45.602;11.904;2023-02-03T12:31:17;73.07;;;41.33;;
62574;SDS011;53112;45.602;11.904;2023-02-03T12:36:39;73.65;;;41.28;;
62574;SDS011;53112;45.602;11.904;2023-02-03T12:39:14;75.95;;;43.55;;
62574;SDS011;53112;45.602;11.904;2023-02-03T12:42:02;74.82;;;44.22;;
62574;SDS011;53112;45.602;11.904;2023-02-03T12:44:39;76.38;;;42.08;;
62574;SDS011;53112;45.602;11.904;2023-02-03T12:47:29;78.00;;;43.00;;
62574;SDS011;53112;45.602;11.904;2023-02-03T12:56:12;81.60;;;43.85;;
62574;SDS011;53112;45.602;11.904;2023-02-03T12:58:55;80.15;;;44.38;;
62574;SDS011;53112;45.602;11.904;2023-02-03T13:02:15;79.97;;;43.95;;
62574;SDS011;53112;45.602;11.904;2023-02-03T13:04:25;78.13;;;44.70;;
62574;SDS011;53112;45.602;11.904;2023-02-03T13:10:03;74.22;;;42.85;;
62574;SDS011;53112;45.602;11.904;2023-02-03T13:12:41;78.40;;;43.05;;
62574;SDS011;53112;45.602;11.904;2023-02-03T13:20:25;79.20;;;43.92;;
62574;SDS011;53112;45.602;11.904;2023-02-03T13:22:56;80.10;;;43.95;;
62574;SDS011;53112;45.602;11.904;2023-02-03T13:25:24;80.00;;;44.75;;
62574;SDS011;53112;45.602;11.904;2023-02-03T13:33:39;82.93;;;45.10;;
62574;SDS011;53112;45.602;11.904;2023-02-03T13:42:07;82.00;;;45.20;;
62574;SDS011;53112;45.602;11.904;2023-02-03T13:44:36;79.75;;;43.35;;
62574;SDS011;53112;45.602;11.904;2023-02-03T13:47:03;86.53;;;47.40;;
62574;SDS011;53112;45.602;11.904;2023-02-03T13:49:31;88.28;;;47.30;;
62574;SDS011;53112;45.602;11.904;2023-02-03T13:51:59;86.95;;;46.47;;
62574;SDS011;53112;45.602;11.904;2023-02-03T13:54:33;86.70;;;47.97;;
62574;SDS011;53112;45.602;11.904;2023-02-03T13:57:14;84.70;;;47.55;;
62574;SDS011;53112;45.602;11.904;2023-02-03T13:59:57;82.75;;;44.70;;
62574;SDS011;53112;45.602;11.904;2023-02-03T14:04:50;88.53;;;47.83;;
62574;SDS011;53112;45.602;11.904;2023-02-03T14:07:31;93.20;;;49.63;;
62574;SDS011;53112;45.602;11.904;2023-02-03T14:10:19;87.32;;;47.80;;
62574;SDS011;53112;45.602;11.904;2023-02-03T14:22:49;87.85;;;46.42;;
62574;SDS011;53112;45.602;11.904;2023-02-03T14:25:21;84.60;;;46.45;;
62574;SDS011;53112;45.602;11.904;2023-02-03T14:27:57;88.82;;;48.03;;
62574;SDS011;53112;45.602;11.904;2023-02-03T14:30:26;83.15;;;45.35;;
62574;SDS011;53112;45.602;11.904;2023-02-03T14:32:59;89.32;;;48.70;;
62574;SDS011;53112;45.602;11.904;2023-02-03T14:37:58;85.90;;;46.78;;
62574;SDS011;53112;45.602;11.904;2023-02-03T14:40:33;91.53;;;48.92;;
62574;SDS011;53112;45.602;11.904;2023-02-03T14:46:07;94.78;;;47.20;;
62574;SDS011;53112;45.602;11.904;2023-02-03T14:59:49;87.25;;;45.70;;
62574;SDS011;53112;45.602;11.904;2023-02-03T15:02:22;84.25;;;44.25;;
62574;SDS011;53112;45.602;11.904;2023-02-03T15:10:23;87.78;;;45.75;;
62574;SDS011;53112;45.602;11.904;2023-02-03T15:12:53;78.50;;;41.92;;
62574;SDS011;53112;45.602;11.904;2023-02-03T15:15:24;83.57;;;44.78;;
62574;SDS011;53112;45.602;11.904;2023-02-03T15:17:52;84.47;;;43.25;;
62574;SDS011;53112;45.602;11.904;2023-02-03T15:22:49;86.50;;;43.83;;
62574;SDS011;53112;45.602;11.904;2023-02-03T15:25:16;82.85;;;42.33;;
62574;SDS011;53112;45.602;11.904;2023-02-03T15:27:45;94.22;;;49.72;;
62574;SDS011;53112;45.602;11.904;2023-02-03T15:30:22;87.43;;;45.70;;
62574;SDS011;53112;45.602;11.904;2023-02-03T15:32:54;86.18;;;45.13;;
62574;SDS011;53112;45.602;11.904;2023-02-03T15:35:32;83.03;;;44.33;;
62574;SDS011;53112;45.602;11.904;2023-02-03T15:38:11;88.10;;;47.17;;
62574;SDS011;53112;45.602;11.904;2023-02-03T15:40:43;95.35;;;49.30;;
62574;SDS011;53112;45.602;11.904;2023-02-03T15:46:24;87.75;;;44.42;;
62574;SDS011;53112;45.602;11.904;2023-02-03T15:53:37;94.07;;;45.88;;
62574;SDS011;53112;45.602;11.904;2023-02-03T15:56:22;97.05;;;47.15;;
62574;SDS011;53112;45.602;11.904;2023-02-03T15:58:50;90.57;;;45.60;;
62574;SDS011;53112;45.602;11.904;2023-02-03T16:01:18;101.43;;;47.90;;
62574;SDS011;53112;45.602;11.904;2023-02-03T16:03:49;108.30;;;52.60;;
62574;SDS011;53112;45.602;11.904;2023-02-03T16:06:18;114.80;;;53.47;;
62574;SDS011;53112;45.602;11.904;2023-02-03T16:08:48;111.13;;;53.50;;
62574;SDS011;53112;45.602;11.904;2023-02-03T16:11:35;108.47;;;52.47;;
62574;SDS011;53112;45.602;11.904;2023-02-03T16:14:03;108.50;;;52.20;;
62574;SDS011;53112;45.602;11.904;2023-02-03T16:19:29;100.90;;;48.83;;
62574;SDS011;53112;45.602;11.904;2023-02-03T16:21:58;98.47;;;50.20;;
62574;SDS011;53112;45.602;11.904;2023-02-03T16:24:40;98.47;;;48.08;;
62574;SDS011;53112;45.602;11.904;2023-02-03T16:32:36;97.50;;;45.90;;
62574;SDS011;53112;45.602;11.904;2023-02-03T16:35:21;103.75;;;46.92;;
62574;SDS011;53112;45.602;11.904;2023-02-03T16:38:07;86.18;;;40.30;;
62574;SDS011;53112;45.602;11.904;2023-02-03T16:40:59;116.70;;;53.45;;
62574;SDS011;53112;45.602;11.904;2023-02-03T16:43:44;103.97;;;50.10;;
62574;SDS011;53112;45.602;11.904;2023-02-03T16:46:28;107.47;;;51.47;;
62574;SDS011;53112;45.602;11.904;2023-02-03T16:49:13;118.55;;;52.90;;
62574;SDS011;53112;45.602;11.904;2023-02-03T16:51:57;103.32;;;48.30;;
62574;SDS011;53112;45.602;11.904;2023-02-03T16:54:23;100.07;;;48.50;;
62574;SDS011;53112;45.602;11.904;2023-02-03T16:56:52;121.75;;;55.58;;
62574;SDS011;53112;45.602;11.904;2023-02-03T16:59:20;109.78;;;52.35;;
62574;SDS011;53112;45.602;11.904;2023-02-03T17:01:46;137.35;;;62.22;;
62574;SDS011;53112;45.602;11.904;2023-02-03T17:04:12;120.40;;;58.70;;
62574;SDS011;53112;45.602;11.904;2023-02-03T17:06:38;134.02;;;60.60;;
62574;SDS011;53112;45.602;11.904;2023-02-03T17:09:05;136.32;;;60.15;;
62574;SDS011;53112;45.602;11.904;2023-02-03T17:11:31;117.88;;;54.63;;
62574;SDS011;53112;45.602;11.904;2023-02-03T17:13:57;122.82;;;57.13;;
62574;SDS011;53112;45.602;11.904;2023-02-03T17:16:24;133.48;;;59.15;;
62574;SDS011;53112;45.602;11.904;2023-02-03T17:18:51;122.75;;;57.78;;